81B weather

Oxford County Regional Airport
Oxford, Maine, United States

Public forecast

Using degrees Fahrenheit for public forecast. Weather courtesy of forecast.io.

Closest aviation weather report (METAR) to Oxford County Regional Airport

Closest report is Auburn Lewiston Municipal Airport, 10.7 nm (19.9 km) SE. Retrieved 2019/10/17 06:56 UTC (27 minutes ago):

KLEW 170656Z AUTO 05010KT 6SM +RA BR OVC008 11/10 A2933 RMK AO2 CIG 006V011 PRESFR SLP938 P0032 T01060100

Closest aviation forecast (TAF) to Oxford County Regional Airport

Closest forecast is Augusta State Airport, 31.0 nm (57.4 km) ENE. Retrieved 2019/10/17 06:22 UTC (1 hour ago):

TAF KAUG 170520Z 1706/1806 09014G22KT P6SM OVC017 FM170900 08018G35KT 1SM +RA BR OVC007 WS020/09048KT FM171500 15010G25KT 6SM SHRA BR OVC012 FM172300 03004KT P6SM OVC030